createdAt,value
2023-10-20T00:00:30.509Z,146.57
2023-10-20T00:03:03.490Z,145.57
2023-10-20T00:05:35.778Z,150.73
2023-10-20T00:08:07.669Z,143.67
2023-10-20T00:10:40.662Z,195.67
2023-10-20T00:13:12.601Z,155.10
2023-10-20T00:15:47.299Z,150.33
2023-10-20T00:18:19.506Z,150.13
2023-10-20T00:20:51.383Z,151.17
2023-10-20T00:23:23.217Z,145.20
2023-10-20T00:25:55.118Z,145.30
2023-10-20T00:28:26.881Z,151.03
2023-10-20T00:30:58.664Z,143.03
2023-10-20T00:33:30.421Z,142.03
2023-10-20T00:36:02.163Z,145.13
2023-10-20T00:38:33.973Z,142.30
2023-10-20T00:41:05.862Z,143.17
2023-10-20T00:43:41.716Z,153.40
2023-10-20T00:46:13.673Z,145.87
2023-10-20T00:48:45.594Z,151.10
2023-10-20T00:51:18.690Z,152.03
2023-10-20T00:53:50.597Z,148.03
2023-10-20T00:56:24.047Z,157.47
2023-10-20T00:58:56.262Z,152.33
2023-10-20T01:01:28.132Z,153.83
2023-10-20T01:04:00.284Z,150.27
2023-10-20T01:06:32.985Z,156.47
2023-10-20T01:09:04.985Z,155.80
2023-10-20T01:11:38.486Z,157.80
2023-10-20T01:14:10.394Z,151.63
2023-10-20T01:16:42.189Z,160.67
2023-10-20T01:19:20.946Z,151.07
2023-10-20T01:21:52.699Z,152.00
2023-10-20T01:24:24.476Z,157.30
2023-10-20T01:26:56.604Z,150.77
2023-10-20T01:29:28.450Z,147.93
2023-10-20T01:32:00.328Z,154.93
2023-10-20T01:34:33.047Z,156.97
2023-10-20T01:37:05.344Z,165.90
2023-10-20T01:39:37.099Z,168.53
2023-10-20T01:42:09.521Z,164.03
2023-10-20T01:44:41.344Z,156.10
2023-10-20T01:47:13.097Z,157.33
2023-10-20T01:49:45.005Z,157.00
2023-10-20T01:52:17.578Z,159.70
2023-10-20T01:54:49.456Z,161.20
2023-10-20T01:57:21.263Z,151.33
2023-10-20T01:59:53.219Z,160.57
2023-10-20T02:02:25.051Z,158.17
2023-10-20T02:04:56.861Z,161.30
2023-10-20T02:07:29.672Z,159.97
2023-10-20T02:10:01.949Z,208.90
2023-10-20T02:12:34.849Z,158.67
2023-10-20T02:15:07.865Z,165.43
2023-10-20T02:17:40.273Z,168.10
2023-10-20T02:20:12.794Z,165.47
2023-10-20T02:22:44.733Z,165.77
2023-10-20T02:25:17.507Z,162.10
2023-10-20T02:27:49.430Z,152.77
2023-10-20T02:30:21.366Z,148.47
2023-10-20T02:32:53.334Z,151.57
2023-10-20T02:35:25.757Z,153.90
2023-10-20T02:37:57.531Z,154.47
2023-10-20T02:40:29.271Z,149.93
2023-10-20T02:43:01.955Z,145.03
2023-10-20T02:45:33.764Z,149.03
2023-10-20T02:48:06.094Z,149.63
2023-10-20T02:50:37.957Z,138.07
2023-10-20T02:53:09.895Z,140.20
2023-10-20T02:55:42.817Z,141.13
2023-10-20T02:58:14.785Z,148.23
2023-10-20T03:00:51.158Z,141.43
2023-10-20T03:03:23.131Z,158.23
2023-10-20T03:05:54.937Z,154.50
2023-10-20T03:08:26.732Z,159.10
2023-10-20T03:10:58.907Z,154.37
2023-10-20T03:13:30.663Z,169.93
2023-10-20T03:16:02.514Z,178.07
2023-10-20T03:18:34.451Z,184.37
2023-10-20T03:21:08.690Z,176.90
2023-10-20T03:23:44.800Z,181.70
2023-10-20T03:26:16.926Z,166.93
2023-10-20T03:28:48.961Z,159.03
2023-10-20T03:31:20.809Z,174.90
2023-10-20T03:33:53.795Z,153.53
2023-10-20T03:36:25.588Z,201.73
2023-10-20T03:38:57.899Z,167.30
2023-10-20T03:41:30.492Z,177.90
2023-10-20T03:44:02.352Z,180.20
2023-10-20T03:46:43.407Z,196.67
2023-10-20T03:49:16.829Z,210.47
2023-10-20T03:51:51.661Z,197.57
2023-10-20T03:54:25.775Z,185.07
2023-10-20T03:56:59.064Z,186.50
2023-10-20T03:59:31.722Z,201.27
2023-10-20T04:02:03.821Z,209.53
2023-10-20T04:04:35.870Z,222.47
2023-10-20T04:07:08.260Z,233.03
2023-10-20T04:09:40.170Z,221.87
2023-10-20T04:12:12.528Z,245.40
2023-10-20T04:14:44.315Z,225.20
2023-10-20T04:17:17.156Z,232.40
2023-10-20T04:19:50.564Z,205.70
2023-10-20T04:22:24.355Z,225.70
2023-10-20T04:24:56.108Z,222.87
2023-10-20T04:27:48.129Z,225.73
2023-10-20T04:30:38.946Z,232.73
2023-10-20T04:33:29.532Z,241.07
2023-10-20T04:36:19.875Z,232.53
2023-10-20T04:39:10.328Z,241.63
2023-10-20T04:42:02.158Z,251.67
2023-10-20T04:44:49.037Z,243.27
2023-10-20T04:47:26.768Z,275.37
2023-10-20T04:50:01.418Z,272.67
2023-10-20T04:52:52.266Z,289.37
2023-10-20T04:55:27.129Z,282.13
2023-10-20T04:58:17.524Z,271.37
2023-10-20T05:01:00.509Z,268.67
2023-10-20T05:03:46.126Z,274.47
2023-10-20T05:06:24.819Z,312.17
2023-10-20T05:08:57.391Z,278.47
2023-10-20T05:11:29.164Z,290.87
2023-10-20T05:14:00.982Z,299.30
2023-10-20T05:16:35.178Z,270.33
2023-10-20T05:19:07.112Z,330.73
2023-10-20T05:21:41.758Z,283.73
2023-10-20T05:24:13.594Z,292.80
2023-10-20T05:26:48.230Z,274.67
2023-10-20T05:29:20.076Z,276.03
2023-10-20T05:31:52.040Z,272.83
2023-10-20T05:34:23.895Z,282.77
2023-10-20T05:36:55.994Z,310.07
2023-10-20T05:39:27.744Z,292.30
2023-10-20T05:42:02.200Z,292.67
2023-10-20T05:44:34.889Z,323.20
2023-10-20T05:47:06.877Z,312.57
2023-10-20T05:49:38.683Z,257.00
2023-10-20T05:52:10.431Z,243.13
2023-10-20T05:54:43.208Z,259.73
2023-10-20T05:57:15.714Z,248.77
2023-10-20T05:59:47.503Z,258.93
2023-10-20T06:02:19.318Z,258.70
2023-10-20T06:04:51.934Z,250.97
2023-10-20T06:07:23.664Z,233.53
2023-10-20T06:09:55.653Z,253.10
2023-10-20T06:12:27.546Z,236.27
2023-10-20T06:14:59.354Z,241.07
2023-10-20T06:17:31.192Z,287.73
2023-10-20T06:20:07.798Z,299.30
2023-10-20T06:22:39.603Z,255.47
2023-10-20T06:25:13.443Z,271.70
2023-10-20T06:27:46.493Z,264.33
2023-10-20T06:30:24.215Z,343.07
2023-10-20T06:33:18.945Z,268.83
2023-10-20T06:35:54.329Z,233.50
2023-10-20T06:38:33.371Z,249.10
2023-10-20T06:41:05.261Z,243.90
2023-10-20T06:43:37.041Z,251.40
2023-10-20T06:46:08.912Z,284.70
2023-10-20T06:48:40.702Z,281.43
2023-10-20T06:51:12.440Z,262.23
2023-10-20T06:53:44.236Z,274.17
2023-10-20T06:56:19.006Z,273.73
2023-10-20T06:58:52.822Z,264.77
2023-10-20T07:01:25.043Z,270.83
2023-10-20T07:03:56.890Z,265.20
2023-10-20T07:06:29.246Z,298.40
2023-10-20T07:09:00.958Z,259.33
2023-10-20T07:11:33.485Z,242.87
2023-10-20T07:14:06.435Z,252.83
2023-10-20T07:16:38.367Z,240.70
2023-10-20T07:19:10.501Z,245.90
2023-10-20T07:21:42.270Z,232.30
2023-10-20T07:24:14.089Z,257.07
2023-10-20T07:26:46.474Z,278.27
2023-10-20T07:29:18.312Z,258.60
2023-10-20T07:31:50.177Z,286.83
2023-10-20T07:34:22.316Z,297.03
2023-10-20T07:36:54.111Z,297.63
2023-10-20T07:39:25.917Z,314.80
2023-10-20T07:41:57.676Z,298.80
2023-10-20T07:44:30.006Z,370.57
2023-10-20T07:47:01.789Z,300.80
2023-10-20T07:49:34.132Z,292.53
2023-10-20T07:52:05.882Z,324.77
2023-10-20T07:54:37.627Z,301.60
2023-10-20T07:57:10.388Z,243.57
2023-10-20T07:59:42.182Z,213.47
2023-10-20T08:02:14.204Z,153.97
2023-10-20T08:04:46.851Z,152.53
2023-10-20T08:07:19.355Z,115.97
2023-10-20T08:09:51.664Z,95.13
2023-10-20T08:12:23.508Z,104.43
2023-10-20T08:14:57.081Z,98.57
2023-10-20T08:17:28.877Z,93.00
2023-10-20T08:20:00.750Z,90.07
2023-10-20T08:22:32.488Z,85.07
2023-10-20T08:25:04.942Z,87.40
2023-10-20T08:27:36.741Z,90.70
2023-10-20T08:30:08.945Z,91.30
2023-10-20T08:33:06.685Z,91.03
2023-10-20T08:35:38.977Z,92.17
2023-10-20T08:38:11.077Z,98.90
2023-10-20T08:41:07.851Z,113.97
2023-10-20T08:43:34.816Z,109.87
2023-10-20T08:46:09.349Z,131.83
2023-10-20T08:48:42.312Z,135.87
2023-10-20T08:51:17.800Z,144.30
2023-10-20T08:53:49.997Z,143.00
2023-10-20T08:58:55.174Z,155.73
2023-10-20T09:01:27.151Z,165.83
2023-10-20T09:04:02.119Z,191.80
2023-10-20T09:06:34.000Z,119.00
2023-10-20T09:09:07.193Z,125.23
2023-10-20T09:11:41.779Z,131.00
2023-10-20T09:14:15.365Z,131.53
2023-10-20T09:16:48.217Z,169.87
2023-10-20T09:19:19.964Z,141.13
2023-10-20T09:21:53.681Z,150.17
2023-10-20T09:24:35.908Z,140.53
2023-10-20T09:27:08.756Z,143.27
2023-10-20T09:29:41.571Z,141.43
2023-10-20T09:32:13.558Z,148.53
2023-10-20T09:34:45.487Z,134.17
2023-10-20T09:37:19.921Z,135.23
2023-10-20T09:39:57.823Z,142.43
2023-10-20T09:45:10.389Z,121.10
2023-10-20T09:47:44.776Z,132.87
2023-10-20T09:50:19.450Z,121.07
2023-10-20T09:52:54.703Z,121.20
2023-10-20T09:55:27.388Z,113.83
2023-10-20T09:58:02.021Z,123.07
2023-10-20T10:00:36.062Z,119.03
2023-10-20T10:03:10.031Z,110.00
2023-10-20T10:05:41.980Z,117.20
2023-10-20T10:08:13.869Z,126.53
2023-10-20T10:10:45.645Z,114.27
2023-10-20T10:13:17.789Z,107.10
2023-10-20T10:15:50.389Z,106.97
2023-10-20T10:18:25.343Z,105.33
2023-10-20T10:21:05.142Z,110.33
2023-10-20T10:23:37.177Z,112.47
2023-10-20T10:26:14.966Z,110.43
2023-10-20T10:28:50.518Z,108.90
2023-10-20T10:31:33.003Z,109.93
2023-10-20T10:34:05.710Z,109.77
2023-10-20T10:36:48.518Z,118.93
2023-10-20T10:39:25.011Z,113.30
2023-10-20T10:42:07.127Z,115.80
2023-10-20T10:44:40.771Z,108.60
2023-10-20T10:47:24.082Z,106.00
2023-10-20T10:49:55.864Z,110.13
2023-10-20T10:52:27.604Z,104.87
2023-10-20T10:54:59.342Z,118.57
2023-10-20T10:57:32.213Z,102.97
2023-10-20T11:00:04.735Z,102.77
2023-10-20T11:02:36.845Z,111.00
2023-10-20T11:05:09.008Z,102.93
2023-10-20T11:07:41.586Z,103.13
2023-10-20T11:10:16.792Z,109.03
2023-10-20T11:12:51.653Z,113.63
2023-10-20T11:15:29.573Z,106.27
2023-10-20T11:18:03.007Z,126.60
2023-10-20T11:20:39.973Z,108.07
2023-10-20T11:23:13.771Z,113.20
2023-10-20T11:25:46.305Z,106.17
2023-10-20T11:28:18.061Z,112.90
2023-10-20T11:30:50.146Z,112.67
2023-10-20T11:33:22.508Z,110.47
2023-10-20T11:35:55.023Z,108.73
2023-10-20T11:38:28.745Z,109.90
2023-10-20T11:41:01.261Z,107.50
2023-10-20T11:43:33.011Z,111.03
2023-10-20T11:46:06.972Z,152.13
2023-10-20T11:48:38.753Z,204.70
2023-10-20T11:51:12.149Z,158.57
2023-10-20T11:53:45.529Z,176.70
2023-10-20T11:56:17.560Z,182.93
2023-10-20T11:58:49.320Z,193.67
2023-10-20T12:01:21.179Z,213.40
2023-10-20T12:03:53.156Z,216.20
2023-10-20T12:06:25.016Z,186.43
2023-10-20T12:08:56.827Z,195.63
2023-10-20T12:11:28.972Z,205.60
2023-10-20T12:14:00.904Z,214.17
2023-10-20T12:16:33.053Z,228.47
2023-10-20T12:19:07.341Z,223.50
2023-10-20T12:21:39.189Z,222.70
2023-10-20T12:24:10.979Z,234.20
2023-10-20T12:26:43.868Z,305.63
2023-10-20T12:29:20.572Z,235.27
2023-10-20T12:31:52.545Z,238.40
2023-10-20T12:34:24.433Z,217.83
2023-10-20T12:36:56.180Z,229.73
2023-10-20T12:39:29.412Z,179.33
2023-10-20T12:42:04.459Z,155.53
2023-10-20T12:44:37.446Z,147.47
2023-10-20T12:47:09.928Z,145.40
2023-10-20T12:49:41.656Z,146.23
2023-10-20T12:52:13.460Z,147.40
2023-10-20T12:54:45.284Z,149.87
2023-10-20T12:57:17.851Z,139.43
2023-10-20T12:59:49.775Z,123.30
2023-10-20T13:02:21.623Z,102.07
2023-10-20T13:04:53.391Z,101.00
2023-10-20T13:07:25.354Z,92.00
2023-10-20T13:09:57.116Z,99.37
2023-10-20T13:12:28.872Z,104.23
2023-10-20T13:15:00.708Z,104.67
2023-10-20T13:17:34.447Z,110.13
2023-10-20T13:20:10.059Z,130.47
2023-10-20T13:22:41.868Z,134.60
2023-10-20T13:25:15.514Z,137.10
2023-10-20T13:27:49.236Z,145.77
2023-10-20T13:30:21.142Z,143.83
2023-10-20T13:32:53.304Z,142.83
2023-10-20T13:35:25.266Z,144.40
2023-10-20T13:37:57.018Z,150.17
2023-10-20T13:40:29.173Z,154.63
2023-10-20T13:43:01.048Z,150.43
2023-10-20T13:45:32.916Z,150.73
2023-10-20T13:48:05.121Z,170.37
2023-10-20T13:50:40.500Z,165.37
2023-10-20T13:53:15.712Z,179.63
2023-10-20T13:55:47.853Z,195.97
2023-10-20T13:58:19.630Z,201.53
2023-10-20T14:00:52.504Z,209.00
2023-10-20T14:03:24.551Z,204.43
2023-10-20T14:05:56.785Z,188.67
2023-10-20T14:08:28.632Z,182.40
2023-10-20T14:11:02.123Z,179.97
2023-10-20T14:13:33.889Z,180.57
2023-10-20T14:16:05.967Z,179.33
2023-10-20T14:18:37.854Z,186.97
2023-10-20T14:21:09.980Z,202.80
2023-10-20T14:23:42.070Z,221.13
2023-10-20T14:26:13.818Z,237.17
2023-10-20T14:28:45.601Z,233.13
2023-10-20T14:31:17.392Z,237.90
2023-10-20T14:33:49.176Z,252.53
2023-10-20T14:36:20.966Z,255.27
2023-10-20T14:38:52.800Z,140.37
2023-10-20T14:41:24.595Z,61.93
2023-10-20T14:43:56.374Z,58.60
2023-10-20T14:46:28.189Z,50.53
2023-10-20T14:49:00.023Z,50.50
2023-10-20T14:51:31.828Z,51.17
2023-10-20T14:54:03.916Z,52.73
2023-10-20T14:56:36.263Z,81.50
2023-10-20T14:59:08.039Z,79.23
2023-10-20T15:01:39.851Z,82.73
2023-10-20T15:04:28.568Z,80.73
2023-10-20T15:07:01.923Z,88.10
2023-10-20T15:09:34.137Z,97.17
2023-10-20T15:12:06.358Z,105.23
2023-10-20T15:14:38.462Z,120.37
2023-10-20T15:17:10.361Z,119.80
2023-10-20T15:19:42.135Z,134.43
2023-10-20T15:22:13.873Z,128.87
2023-10-20T15:24:45.660Z,147.43
2023-10-20T15:27:19.632Z,199.63
2023-10-20T15:29:51.779Z,253.20
2023-10-20T15:32:23.601Z,300.53
2023-10-20T15:34:55.542Z,356.33
2023-10-20T15:37:27.321Z,369.23
2023-10-20T15:40:07.823Z,380.97
2023-10-20T15:42:47.532Z,381.33
2023-10-20T15:45:20.314Z,392.10
2023-10-20T15:47:52.320Z,386.50
2023-10-20T15:50:24.251Z,377.50
2023-10-20T15:52:56.039Z,359.47
2023-10-20T15:55:27.938Z,366.53
2023-10-20T15:57:59.674Z,373.37
2023-10-20T16:00:35.045Z,358.37
2023-10-20T16:03:06.981Z,376.60
2023-10-20T16:05:38.902Z,366.13
2023-10-20T16:08:10.670Z,165.57
2023-10-20T16:10:42.518Z,180.87
2023-10-20T16:13:14.289Z,185.30
2023-10-20T16:15:46.080Z,176.03
2023-10-20T16:18:18.142Z,170.47
2023-10-20T16:20:50.449Z,160.80
2023-10-20T16:23:22.913Z,159.27
2023-10-20T16:25:54.894Z,160.17
2023-10-20T16:28:26.696Z,167.90
2023-10-20T16:31:01.348Z,156.13
2023-10-20T16:33:36.422Z,128.07
2023-10-20T16:36:08.395Z,144.63
2023-10-20T16:38:40.586Z,145.50
2023-10-20T16:41:12.556Z,129.87
2023-10-20T16:43:44.402Z,131.90
2023-10-20T16:46:16.209Z,142.07
2023-10-20T16:48:49.700Z,132.03
2023-10-20T16:51:21.851Z,133.07
2023-10-20T16:53:53.769Z,151.23
2023-10-20T16:56:25.716Z,140.37
2023-10-20T16:58:57.823Z,130.37
2023-10-20T17:01:31.866Z,126.57
2023-10-20T17:04:04.480Z,130.57
2023-10-20T17:06:36.375Z,125.67
2023-10-20T17:09:08.738Z,122.87
2023-10-20T17:11:40.606Z,120.60
2023-10-20T17:14:12.361Z,118.50
2023-10-20T17:16:44.574Z,117.20
2023-10-20T17:19:16.355Z,119.53
2023-10-20T17:21:48.122Z,108.80
2023-10-20T17:24:19.858Z,117.47
2023-10-20T17:26:51.610Z,116.27
2023-10-20T17:29:23.474Z,114.67
2023-10-20T17:31:55.377Z,115.20
2023-10-20T17:34:27.379Z,120.53
2023-10-20T17:36:59.154Z,133.17
2023-10-20T17:39:31.190Z,137.63
2023-10-20T17:42:03.925Z,138.87
2023-10-20T17:44:35.736Z,135.77
2023-10-20T17:47:07.518Z,149.60
2023-10-20T17:49:39.502Z,136.75
2023-10-20T17:52:11.427Z,140.63
2023-10-20T17:54:44.520Z,141.70
2023-10-20T17:57:16.471Z,138.57
2023-10-20T17:59:48.247Z,142.23
2023-10-20T18:02:20.056Z,146.37
2023-10-20T18:04:52.798Z,142.70
2023-10-20T18:07:24.572Z,140.83
2023-10-20T18:09:56.317Z,134.93
2023-10-20T18:12:28.137Z,144.00
2023-10-20T18:15:00.485Z,149.13
2023-10-20T18:17:32.336Z,140.70
2023-10-20T18:20:05.880Z,155.77
2023-10-20T18:22:37.741Z,145.57
2023-10-20T18:25:10.639Z,140.80
2023-10-20T18:27:45.236Z,151.40
2023-10-20T18:30:17.470Z,341.90
2023-10-20T18:32:49.374Z,344.07
2023-10-20T18:35:21.148Z,353.37
2023-10-20T18:37:52.931Z,339.60
2023-10-20T18:40:26.046Z,335.23
2023-10-20T18:43:01.863Z,321.73
2023-10-20T18:45:33.932Z,322.17
2023-10-20T18:48:06.776Z,324.27
2023-10-20T18:50:39.564Z,319.60
2023-10-20T18:53:12.178Z,333.33
2023-10-20T18:55:44.152Z,296.80
2023-10-20T18:58:15.964Z,291.67
2023-10-20T19:00:47.755Z,269.83
2023-10-20T19:03:22.810Z,258.03
2023-10-20T19:05:54.779Z,253.90
2023-10-20T19:08:26.642Z,256.13
2023-10-20T19:11:05.466Z,268.63
2023-10-20T19:13:37.895Z,257.00
2023-10-20T19:16:09.842Z,248.50
2023-10-20T19:18:41.765Z,242.97
2023-10-20T19:21:13.650Z,233.40
2023-10-20T19:23:45.458Z,231.77
2023-10-20T19:26:17.222Z,222.33
2023-10-20T19:28:49.160Z,211.97
2023-10-20T19:31:20.958Z,209.20
2023-10-20T19:33:52.931Z,190.43
2023-10-20T19:36:24.868Z,181.57
2023-10-20T19:38:56.700Z,167.30
2023-10-20T19:41:28.716Z,172.37
2023-10-20T19:44:00.485Z,154.73
2023-10-20T19:46:32.551Z,164.97
2023-10-20T19:49:04.665Z,156.27
2023-10-20T19:51:36.418Z,154.40
2023-10-20T19:54:09.405Z,155.87
2023-10-20T19:56:42.140Z,158.27
2023-10-20T19:59:13.922Z,152.23
2023-10-20T20:01:46.021Z,155.13
2023-10-20T20:04:22.889Z,145.10
2023-10-20T20:06:56.339Z,149.37
2023-10-20T20:09:29.472Z,150.70
2023-10-20T20:12:01.258Z,158.83
2023-10-20T20:14:33.077Z,161.67
2023-10-20T20:17:04.838Z,150.20
2023-10-20T20:19:36.723Z,142.87
2023-10-20T20:22:08.643Z,146.67
2023-10-20T20:24:40.407Z,149.77
2023-10-20T20:27:12.553Z,147.77
2023-10-20T20:29:44.431Z,152.97
2023-10-20T20:32:16.197Z,148.47
2023-10-20T20:34:48.061Z,150.63
2023-10-20T20:37:20.284Z,152.20
2023-10-20T20:39:52.092Z,169.80
2023-10-20T20:42:24.463Z,167.13
2023-10-20T20:44:56.278Z,167.43
2023-10-20T20:47:28.165Z,166.63
2023-10-20T20:50:00.377Z,169.77
2023-10-20T20:52:32.922Z,181.47
2023-10-20T20:55:06.087Z,172.27
2023-10-20T20:57:37.917Z,173.30
2023-10-20T21:00:11.179Z,177.90
2023-10-20T21:02:43.351Z,172.87
2023-10-20T21:05:15.333Z,188.90
2023-10-20T21:07:47.073Z,190.17
2023-10-20T21:10:19.031Z,191.83
2023-10-20T21:12:50.918Z,199.33
2023-10-20T21:15:22.771Z,194.83
2023-10-20T21:17:54.841Z,207.07
2023-10-20T21:20:26.644Z,212.77
2023-10-20T21:22:58.372Z,214.57
2023-10-20T21:25:30.124Z,212.27
2023-10-20T21:28:02.978Z,208.20
2023-10-20T21:30:37.310Z,204.23
2023-10-20T21:33:09.176Z,205.47
2023-10-20T21:35:44.584Z,216.93
2023-10-20T21:38:16.997Z,208.20
2023-10-20T21:40:48.836Z,212.43
2023-10-20T21:43:20.598Z,219.87
2023-10-20T21:45:57.193Z,197.63
2023-10-20T21:48:29.123Z,207.00
2023-10-20T21:51:03.231Z,187.27
2023-10-20T21:53:35.844Z,190.77
2023-10-20T21:56:09.968Z,189.50
2023-10-20T21:58:42.493Z,213.77
2023-10-20T22:01:14.844Z,117.97
2023-10-20T22:03:47.103Z,106.33
2023-10-20T22:06:19.161Z,102.90
2023-10-20T22:08:52.636Z,101.20
2023-10-20T22:11:24.527Z,104.57
2023-10-20T22:13:56.321Z,103.87
2023-10-20T22:16:28.161Z,101.57
2023-10-20T22:19:00.038Z,107.20
2023-10-20T22:21:32.302Z,108.47
2023-10-20T22:24:04.832Z,109.70
2023-10-20T22:26:36.657Z,101.27
2023-10-20T22:29:08.521Z,110.17
2023-10-20T22:31:40.371Z,111.87
2023-10-20T22:34:12.200Z,104.90
2023-10-20T22:36:44.029Z,107.37
2023-10-20T22:39:16.101Z,113.17
2023-10-20T22:41:47.988Z,118.70
2023-10-20T22:44:19.873Z,116.63
2023-10-20T22:46:51.635Z,108.97
2023-10-20T22:49:23.410Z,118.00
2023-10-20T22:51:55.190Z,109.83
2023-10-20T22:54:26.947Z,115.70
2023-10-20T22:56:58.740Z,121.17
2023-10-20T22:59:30.577Z,114.50
2023-10-20T23:02:03.194Z,114.33
2023-10-20T23:04:35.263Z,115.47
2023-10-20T23:07:07.119Z,115.03
2023-10-20T23:09:39.000Z,99.13
2023-10-20T23:12:11.044Z,93.17
2023-10-20T23:14:42.981Z,95.93
2023-10-20T23:17:14.827Z,96.80
2023-10-20T23:19:46.601Z,97.37
2023-10-20T23:22:18.762Z,100.23
2023-10-20T23:24:50.561Z,90.63
2023-10-20T23:27:22.379Z,92.77
2023-10-20T23:29:54.169Z,93.80
2023-10-20T23:32:26.130Z,89.07
2023-10-20T23:34:57.909Z,95.57
2023-10-20T23:37:29.678Z,83.07
2023-10-20T23:40:01.540Z,87.87
2023-10-20T23:42:36.720Z,83.93
2023-10-20T23:45:08.923Z,82.47
2023-10-20T23:47:40.801Z,84.87
2023-10-20T23:50:12.599Z,91.13
2023-10-20T23:52:45.276Z,82.33
2023-10-20T23:55:17.119Z,79.97
2023-10-20T23:57:48.866Z,82.87
